<?xml version="1.0" encoding="UTF-8" standalone="no" ?>
<gpx xmlns="http://www.topografix.com/GPX/1/1" xmlns:xsi="http://www.w3.org/2001/XMLSchema-instance" xsi:schemaLocation="http://www.topografix.com/GPX/1/1 http://www.topografix.com/GPX/1/1/gpx.xsd" version="1.1" creator="VisuGPX - https://www.visugpx.com">
  <metadata>
    <name>Pointe de Merdassier (74 Aravis)</name>
    <desc><![CDATA[Départ de la Coverie (La Clusaz)
Photos et commentaires sur : [url]www.photosrandos.fr[/url]]]></desc>
  </metadata>
  <trk>
    <name><![CDATA[Pointe de Merdassier (74 Aravis)_1]]></name>
    <trkseg>
      <trkpt lat="45.87552" lon="6.41917">
        <ele>1429.413</ele>
        <time>2009-02-27T08:49:40Z</time>
      </trkpt>
      <trkpt lat="45.87556" lon="6.41927">
        <ele>1411.436</ele>
        <time>2009-02-27T08:49:52Z</time>
      </trkpt>
      <trkpt lat="45.8754" lon="6.41926">
        <ele>1421.165</ele>
        <time>2009-02-27T08:51:44Z</time>
      </trkpt>
      <trkpt lat="45.87528" lon="6.41907">
        <ele>1421.374</ele>
        <time>2009-02-27T08:52:07Z</time>
      </trkpt>
      <trkpt lat="45.87513" lon="6.41924">
        <ele>1422.057</ele>
        <time>2009-02-27T08:56:00Z</time>
      </trkpt>
      <trkpt lat="45.87495" lon="6.41924">
        <ele>1429.052</ele>
        <time>2009-02-27T08:56:24Z</time>
      </trkpt>
      <trkpt lat="45.87479" lon="6.41924">
        <ele>1438.172</ele>
        <time>2009-02-27T08:56:50Z</time>
      </trkpt>
      <trkpt lat="45.87463" lon="6.41919">
        <ele>1446.841</ele>
        <time>2009-02-27T08:57:11Z</time>
      </trkpt>
      <trkpt lat="45.87445" lon="6.41914">
        <ele>1452.927</ele>
        <time>2009-02-27T08:57:39Z</time>
      </trkpt>
      <trkpt lat="45.87428" lon="6.41905">
        <ele>1448.56</ele>
        <time>2009-02-27T08:58:09Z</time>
      </trkpt>
      <trkpt lat="45.8741" lon="6.419">
        <ele>1450.997</ele>
        <time>2009-02-27T08:58:35Z</time>
      </trkpt>
      <trkpt lat="45.87392" lon="6.41895">
        <ele>1450.379</ele>
        <time>2009-02-27T08:59:06Z</time>
      </trkpt>
      <trkpt lat="45.87381" lon="6.41915">
        <ele>1448.228</ele>
        <time>2009-02-27T08:59:57Z</time>
      </trkpt>
      <trkpt lat="45.87388" lon="6.41937">
        <ele>1456.675</ele>
        <time>2009-02-27T09:00:21Z</time>
      </trkpt>
      <trkpt lat="45.87375" lon="6.41953">
        <ele>1464.996</ele>
        <time>2009-02-27T09:01:12Z</time>
      </trkpt>
      <trkpt lat="45.87358" lon="6.41957">
        <ele>1470.474</ele>
        <time>2009-02-27T09:01:47Z</time>
      </trkpt>
      <trkpt lat="45.87344" lon="6.41972">
        <ele>1477.423</ele>
        <time>2009-02-27T09:02:29Z</time>
      </trkpt>
      <trkpt lat="45.87326" lon="6.4197">
        <ele>1479.688</ele>
        <time>2009-02-27T09:03:04Z</time>
      </trkpt>
      <trkpt lat="45.87307" lon="6.4197">
        <ele>1482.279</ele>
        <time>2009-02-27T09:03:42Z</time>
      </trkpt>
      <trkpt lat="45.87291" lon="6.41978">
        <ele>1487.879</ele>
        <time>2009-02-27T09:04:11Z</time>
      </trkpt>
      <trkpt lat="45.87275" lon="6.41988">
        <ele>1491.998</ele>
        <time>2009-02-27T09:04:44Z</time>
      </trkpt>
      <trkpt lat="45.87259" lon="6.42001">
        <ele>1494.656</ele>
        <time>2009-02-27T09:05:12Z</time>
      </trkpt>
      <trkpt lat="45.87243" lon="6.42014">
        <ele>1496.967</ele>
        <time>2009-02-27T09:05:37Z</time>
      </trkpt>
      <trkpt lat="45.87228" lon="6.42028">
        <ele>1499.944</ele>
        <time>2009-02-27T09:06:08Z</time>
      </trkpt>
      <trkpt lat="45.87211" lon="6.42037">
        <ele>1501.608</ele>
        <time>2009-02-27T09:06:28Z</time>
      </trkpt>
      <trkpt lat="45.87194" lon="6.42047">
        <ele>1505.914</ele>
        <time>2009-02-27T09:06:56Z</time>
      </trkpt>
      <trkpt lat="45.87178" lon="6.42058">
        <ele>1507.774</ele>
        <time>2009-02-27T09:07:21Z</time>
      </trkpt>
      <trkpt lat="45.87162" lon="6.42072">
        <ele>1509.129</ele>
        <time>2009-02-27T09:07:46Z</time>
      </trkpt>
      <trkpt lat="45.87146" lon="6.42083">
        <ele>1513.252</ele>
        <time>2009-02-27T09:08:11Z</time>
      </trkpt>
      <trkpt lat="45.87131" lon="6.42096">
        <ele>1512.185</ele>
        <time>2009-02-27T09:08:38Z</time>
      </trkpt>
      <trkpt lat="45.87115" lon="6.42108">
        <ele>1515.31</ele>
        <time>2009-02-27T09:09:05Z</time>
      </trkpt>
      <trkpt lat="45.871" lon="6.42123">
        <ele>1519.123</ele>
        <time>2009-02-27T09:09:33Z</time>
      </trkpt>
      <trkpt lat="45.87085" lon="6.42137">
        <ele>1523.337</ele>
        <time>2009-02-27T09:10:00Z</time>
      </trkpt>
      <trkpt lat="45.87073" lon="6.42156">
        <ele>1526.216</ele>
        <time>2009-02-27T09:10:34Z</time>
      </trkpt>
      <trkpt lat="45.87059" lon="6.42173">
        <ele>1529.753</ele>
        <time>2009-02-27T09:11:06Z</time>
      </trkpt>
      <trkpt lat="45.87044" lon="6.42188">
        <ele>1535.009</ele>
        <time>2009-02-27T09:11:40Z</time>
      </trkpt>
      <trkpt lat="45.87034" lon="6.42208">
        <ele>1537.696</ele>
        <time>2009-02-27T09:12:16Z</time>
      </trkpt>
      <trkpt lat="45.87026" lon="6.42232">
        <ele>1542.564</ele>
        <time>2009-02-27T09:12:50Z</time>
      </trkpt>
      <trkpt lat="45.87012" lon="6.42247">
        <ele>1547.628</ele>
        <time>2009-02-27T09:13:31Z</time>
      </trkpt>
      <trkpt lat="45.86998" lon="6.42262">
        <ele>1552.391</ele>
        <time>2009-02-27T09:14:14Z</time>
      </trkpt>
      <trkpt lat="45.86994" lon="6.42287">
        <ele>1558.507</ele>
        <time>2009-02-27T09:14:53Z</time>
      </trkpt>
      <trkpt lat="45.86985" lon="6.42309">
        <ele>1562.602</ele>
        <time>2009-02-27T09:15:29Z</time>
      </trkpt>
      <trkpt lat="45.86976" lon="6.42331">
        <ele>1565.792</ele>
        <time>2009-02-27T09:16:00Z</time>
      </trkpt>
      <trkpt lat="45.86966" lon="6.42352">
        <ele>1570.373</ele>
        <time>2009-02-27T09:18:10Z</time>
      </trkpt>
      <trkpt lat="45.86956" lon="6.42374">
        <ele>1570.853</ele>
        <time>2009-02-27T09:21:04Z</time>
      </trkpt>
      <trkpt lat="45.8694" lon="6.42384">
        <ele>1577.245</ele>
        <time>2009-02-27T09:21:30Z</time>
      </trkpt>
      <trkpt lat="45.86924" lon="6.42395">
        <ele>1578.387</ele>
        <time>2009-02-27T09:21:50Z</time>
      </trkpt>
      <trkpt lat="45.86912" lon="6.42414">
        <ele>1577.778</ele>
        <time>2009-02-27T09:22:11Z</time>
      </trkpt>
      <trkpt lat="45.86909" lon="6.42441">
        <ele>1576.641</ele>
        <time>2009-02-27T09:23:21Z</time>
      </trkpt>
      <trkpt lat="45.86905" lon="6.42466">
        <ele>1579.98</ele>
        <time>2009-02-27T09:23:41Z</time>
      </trkpt>
      <trkpt lat="45.86899" lon="6.42491">
        <ele>1581.471</ele>
        <time>2009-02-27T09:24:12Z</time>
      </trkpt>
      <trkpt lat="45.86887" lon="6.42509">
        <ele>1587.506</ele>
        <time>2009-02-27T09:24:45Z</time>
      </trkpt>
      <trkpt lat="45.8687" lon="6.42518">
        <ele>1591.421</ele>
        <time>2009-02-27T09:25:19Z</time>
      </trkpt>
      <trkpt lat="45.86854" lon="6.4253">
        <ele>1595.62</ele>
        <time>2009-02-27T09:25:51Z</time>
      </trkpt>
      <trkpt lat="45.86837" lon="6.42542">
        <ele>1597.936</ele>
        <time>2009-02-27T09:26:19Z</time>
      </trkpt>
      <trkpt lat="45.86824" lon="6.42559">
        <ele>1603.091</ele>
        <time>2009-02-27T09:26:54Z</time>
      </trkpt>
      <trkpt lat="45.8681" lon="6.42543">
        <ele>1605.829</ele>
        <time>2009-02-27T09:27:18Z</time>
      </trkpt>
      <trkpt lat="45.86792" lon="6.42544">
        <ele>1608.193</ele>
        <time>2009-02-27T09:36:55Z</time>
      </trkpt>
      <trkpt lat="45.86785" lon="6.42568">
        <ele>1609.749</ele>
        <time>2009-02-27T09:37:26Z</time>
      </trkpt>
      <trkpt lat="45.86787" lon="6.42593">
        <ele>1615.359</ele>
        <time>2009-02-27T09:38:03Z</time>
      </trkpt>
      <trkpt lat="45.8678" lon="6.42611">
        <ele>1627.012</ele>
        <time>2009-02-27T09:39:25Z</time>
      </trkpt>
      <trkpt lat="45.86764" lon="6.42602">
        <ele>1632.718</ele>
        <time>2009-02-27T09:40:04Z</time>
      </trkpt>
      <trkpt lat="45.86747" lon="6.42593">
        <ele>1638.818</ele>
        <time>2009-02-27T09:40:43Z</time>
      </trkpt>
      <trkpt lat="45.86729" lon="6.4259">
        <ele>1642.285</ele>
        <time>2009-02-27T09:41:25Z</time>
      </trkpt>
      <trkpt lat="45.86735" lon="6.42613">
        <ele>1647.979</ele>
        <time>2009-02-27T09:42:07Z</time>
      </trkpt>
      <trkpt lat="45.86744" lon="6.42635">
        <ele>1652.5</ele>
        <time>2009-02-27T09:42:39Z</time>
      </trkpt>
      <trkpt lat="45.8675" lon="6.42659">
        <ele>1658.358</ele>
        <time>2009-02-27T09:43:15Z</time>
      </trkpt>
      <trkpt lat="45.86755" lon="6.42684">
        <ele>1661.24</ele>
        <time>2009-02-27T09:43:53Z</time>
      </trkpt>
      <trkpt lat="45.86759" lon="6.42709">
        <ele>1666.138</ele>
        <time>2009-02-27T09:44:34Z</time>
      </trkpt>
      <trkpt lat="45.86763" lon="6.42733">
        <ele>1671.557</ele>
        <time>2009-02-27T09:45:19Z</time>
      </trkpt>
      <trkpt lat="45.86769" lon="6.42757">
        <ele>1677.09</ele>
        <time>2009-02-27T09:45:53Z</time>
      </trkpt>
      <trkpt lat="45.86775" lon="6.4278">
        <ele>1683.437</ele>
        <time>2009-02-27T09:46:31Z</time>
      </trkpt>
      <trkpt lat="45.8678" lon="6.42803">
        <ele>1689.799</ele>
        <time>2009-02-27T09:47:07Z</time>
      </trkpt>
      <trkpt lat="45.86787" lon="6.42827">
        <ele>1694.76</ele>
        <time>2009-02-27T09:47:44Z</time>
      </trkpt>
      <trkpt lat="45.86791" lon="6.42852">
        <ele>1698.284</ele>
        <time>2009-02-27T09:48:24Z</time>
      </trkpt>
      <trkpt lat="45.86796" lon="6.42877">
        <ele>1703.082</ele>
        <time>2009-02-27T09:49:00Z</time>
      </trkpt>
      <trkpt lat="45.868" lon="6.42902">
        <ele>1707.046</ele>
        <time>2009-02-27T09:49:35Z</time>
      </trkpt>
      <trkpt lat="45.86785" lon="6.42911">
        <ele>1715.038</ele>
        <time>2009-02-27T09:50:20Z</time>
      </trkpt>
      <trkpt lat="45.86767" lon="6.42911">
        <ele>1720.429</ele>
        <time>2009-02-27T09:51:00Z</time>
      </trkpt>
      <trkpt lat="45.86751" lon="6.42919">
        <ele>1726.376</ele>
        <time>2009-02-27T09:51:36Z</time>
      </trkpt>
      <trkpt lat="45.86733" lon="6.42925">
        <ele>1731.994</ele>
        <time>2009-02-27T09:52:13Z</time>
      </trkpt>
      <trkpt lat="45.86716" lon="6.4293">
        <ele>1735.345</ele>
        <time>2009-02-27T09:52:54Z</time>
      </trkpt>
      <trkpt lat="45.86699" lon="6.42926">
        <ele>1742.081</ele>
        <time>2009-02-27T09:53:33Z</time>
      </trkpt>
      <trkpt lat="45.86682" lon="6.42934">
        <ele>1747.273</ele>
        <time>2009-02-27T09:54:22Z</time>
      </trkpt>
      <trkpt lat="45.86687" lon="6.42958">
        <ele>1754.337</ele>
        <time>2009-02-27T09:55:01Z</time>
      </trkpt>
      <trkpt lat="45.86695" lon="6.42981">
        <ele>1757.421</ele>
        <time>2009-02-27T09:55:41Z</time>
      </trkpt>
      <trkpt lat="45.86702" lon="6.43005">
        <ele>1762.593</ele>
        <time>2009-02-27T09:56:15Z</time>
      </trkpt>
      <trkpt lat="45.86709" lon="6.43027">
        <ele>1768.568</ele>
        <time>2009-02-27T09:56:55Z</time>
      </trkpt>
      <trkpt lat="45.86715" lon="6.43051">
        <ele>1774.169</ele>
        <time>2009-02-27T09:57:37Z</time>
      </trkpt>
      <trkpt lat="45.8672" lon="6.43074">
        <ele>1780.563</ele>
        <time>2009-02-27T09:58:15Z</time>
      </trkpt>
      <trkpt lat="45.86703" lon="6.43079">
        <ele>1785.728</ele>
        <time>2009-02-27T09:59:05Z</time>
      </trkpt>
      <trkpt lat="45.86686" lon="6.4308">
        <ele>1791.567</ele>
        <time>2009-02-27T09:59:42Z</time>
      </trkpt>
      <trkpt lat="45.86685" lon="6.43105">
        <ele>1798.564</ele>
        <time>2009-02-27T10:00:48Z</time>
      </trkpt>
      <trkpt lat="45.8668" lon="6.43127">
        <ele>1807.827</ele>
        <time>2009-02-27T10:01:50Z</time>
      </trkpt>
      <trkpt lat="45.86662" lon="6.43126">
        <ele>1812.191</ele>
        <time>2009-02-27T10:02:31Z</time>
      </trkpt>
      <trkpt lat="45.86645" lon="6.4313">
        <ele>1819.863</ele>
        <time>2009-02-27T10:03:12Z</time>
      </trkpt>
      <trkpt lat="45.86628" lon="6.43137">
        <ele>1825.384</ele>
        <time>2009-02-27T10:03:53Z</time>
      </trkpt>
      <trkpt lat="45.86632" lon="6.43161">
        <ele>1830.012</ele>
        <time>2009-02-27T10:05:13Z</time>
      </trkpt>
      <trkpt lat="45.86638" lon="6.43185">
        <ele>1835.552</ele>
        <time>2009-02-27T10:05:46Z</time>
      </trkpt>
      <trkpt lat="45.8665" lon="6.43204">
        <ele>1841.354</ele>
        <time>2009-02-27T10:06:27Z</time>
      </trkpt>
      <trkpt lat="45.86663" lon="6.4322">
        <ele>1847.087</ele>
        <time>2009-02-27T10:07:03Z</time>
      </trkpt>
      <trkpt lat="45.86673" lon="6.43241">
        <ele>1850.771</ele>
        <time>2009-02-27T10:07:38Z</time>
      </trkpt>
      <trkpt lat="45.86679" lon="6.43264">
        <ele>1856.93</ele>
        <time>2009-02-27T10:08:15Z</time>
      </trkpt>
      <trkpt lat="45.86688" lon="6.43286">
        <ele>1861.633</ele>
        <time>2009-02-27T10:08:51Z</time>
      </trkpt>
      <trkpt lat="45.86698" lon="6.43307">
        <ele>1866.697</ele>
        <time>2009-02-27T10:09:31Z</time>
      </trkpt>
      <trkpt lat="45.86704" lon="6.43329">
        <ele>1874.863</ele>
        <time>2009-02-27T10:10:07Z</time>
      </trkpt>
      <trkpt lat="45.86709" lon="6.43353">
        <ele>1878.304</ele>
        <time>2009-02-27T10:10:54Z</time>
      </trkpt>
      <trkpt lat="45.86713" lon="6.43378">
        <ele>1884.843</ele>
        <time>2009-02-27T10:11:39Z</time>
      </trkpt>
      <trkpt lat="45.86708" lon="6.43402">
        <ele>1892.106</ele>
        <time>2009-02-27T10:12:40Z</time>
      </trkpt>
      <trkpt lat="45.86691" lon="6.434">
        <ele>1899.029</ele>
        <time>2009-02-27T10:13:25Z</time>
      </trkpt>
      <trkpt lat="45.86673" lon="6.43402">
        <ele>1903.33</ele>
        <time>2009-02-27T10:14:03Z</time>
      </trkpt>
      <trkpt lat="45.86656" lon="6.43399">
        <ele>1911.662</ele>
        <time>2009-02-27T10:14:45Z</time>
      </trkpt>
      <trkpt lat="45.86661" lon="6.43423">
        <ele>1915.15</ele>
        <time>2009-02-27T10:15:37Z</time>
      </trkpt>
      <trkpt lat="45.86668" lon="6.43448">
        <ele>1917.796</ele>
        <time>2009-02-27T10:16:23Z</time>
      </trkpt>
      <trkpt lat="45.86653" lon="6.43454">
        <ele>1927.768</ele>
        <time>2009-02-27T10:17:14Z</time>
      </trkpt>
      <trkpt lat="45.86636" lon="6.43453">
        <ele>1935.558</ele>
        <time>2009-02-27T10:17:57Z</time>
      </trkpt>
      <trkpt lat="45.86618" lon="6.43455">
        <ele>1938.634</ele>
        <time>2009-02-27T10:18:36Z</time>
      </trkpt>
      <trkpt lat="45.86602" lon="6.43466">
        <ele>1945.508</ele>
        <time>2009-02-27T10:19:21Z</time>
      </trkpt>
      <trkpt lat="45.86586" lon="6.43473">
        <ele>1950.994</ele>
        <time>2009-02-27T10:20:05Z</time>
      </trkpt>
      <trkpt lat="45.86595" lon="6.43495">
        <ele>1955.572</ele>
        <time>2009-02-27T10:21:13Z</time>
      </trkpt>
      <trkpt lat="45.86607" lon="6.43512">
        <ele>1962.818</ele>
        <time>2009-02-27T10:21:51Z</time>
      </trkpt>
      <trkpt lat="45.86618" lon="6.43533">
        <ele>1965.905</ele>
        <time>2009-02-27T10:22:32Z</time>
      </trkpt>
      <trkpt lat="45.86612" lon="6.43554">
        <ele>1976</ele>
        <time>2009-02-27T10:24:18Z</time>
      </trkpt>
      <trkpt lat="45.8662" lon="6.43575">
        <ele>1984.48</ele>
        <time>2009-02-27T10:29:45Z</time>
      </trkpt>
      <trkpt lat="45.86631" lon="6.43597">
        <ele>1987.138</ele>
        <time>2009-02-27T10:30:46Z</time>
      </trkpt>
      <trkpt lat="45.86647" lon="6.43608">
        <ele>1992.866</ele>
        <time>2009-02-27T10:31:24Z</time>
      </trkpt>
      <trkpt lat="45.86635" lon="6.43627">
        <ele>1998.282</ele>
        <time>2009-02-27T10:32:14Z</time>
      </trkpt>
      <trkpt lat="45.86619" lon="6.43637">
        <ele>2003.293</ele>
        <time>2009-02-27T10:33:01Z</time>
      </trkpt>
      <trkpt lat="45.86617" lon="6.43662">
        <ele>2009.691</ele>
        <time>2009-02-27T10:34:17Z</time>
      </trkpt>
      <trkpt lat="45.86606" lon="6.4368">
        <ele>2018.674</ele>
        <time>2009-02-27T10:35:39Z</time>
      </trkpt>
      <trkpt lat="45.86589" lon="6.43681">
        <ele>2024.559</ele>
        <time>2009-02-27T10:36:19Z</time>
      </trkpt>
      <trkpt lat="45.86571" lon="6.43681">
        <ele>2031.389</ele>
        <time>2009-02-27T10:37:03Z</time>
      </trkpt>
      <trkpt lat="45.86571" lon="6.43706">
        <ele>2037.897</ele>
        <time>2009-02-27T10:38:08Z</time>
      </trkpt>
      <trkpt lat="45.86579" lon="6.43728">
        <ele>2045.026</ele>
        <time>2009-02-27T10:38:57Z</time>
      </trkpt>
      <trkpt lat="45.86591" lon="6.43747">
        <ele>2049.457</ele>
        <time>2009-02-27T10:39:38Z</time>
      </trkpt>
      <trkpt lat="45.8658" lon="6.43764">
        <ele>2059.226</ele>
        <time>2009-02-27T10:40:48Z</time>
      </trkpt>
      <trkpt lat="45.86562" lon="6.43767">
        <ele>2062.741</ele>
        <time>2009-02-27T10:41:31Z</time>
      </trkpt>
      <trkpt lat="45.86544" lon="6.43769">
        <ele>2067.115</ele>
        <time>2009-02-27T10:42:14Z</time>
      </trkpt>
      <trkpt lat="45.8655" lon="6.43792">
        <ele>2072.671</ele>
        <time>2009-02-27T10:43:17Z</time>
      </trkpt>
      <trkpt lat="45.86562" lon="6.4381">
        <ele>2079.263</ele>
        <time>2009-02-27T10:43:58Z</time>
      </trkpt>
      <trkpt lat="45.86574" lon="6.43827">
        <ele>2086.082</ele>
        <time>2009-02-27T10:44:39Z</time>
      </trkpt>
      <trkpt lat="45.86557" lon="6.43835">
        <ele>2089.821</ele>
        <time>2009-02-27T10:45:26Z</time>
      </trkpt>
      <trkpt lat="45.86564" lon="6.43856">
        <ele>2098.936</ele>
        <time>2009-02-27T10:46:59Z</time>
      </trkpt>
      <trkpt lat="45.86554" lon="6.43876">
        <ele>2106.669</ele>
        <time>2009-02-27T10:49:08Z</time>
      </trkpt>
      <trkpt lat="45.86537" lon="6.43881">
        <ele>2110.66</ele>
        <time>2009-02-27T10:49:51Z</time>
      </trkpt>
      <trkpt lat="45.86519" lon="6.43884">
        <ele>2114.318</ele>
        <time>2009-02-27T10:50:37Z</time>
      </trkpt>
      <trkpt lat="45.86526" lon="6.43904">
        <ele>2124.968</ele>
        <time>2009-02-27T10:53:10Z</time>
      </trkpt>
      <trkpt lat="45.86514" lon="6.43917">
        <ele>2136.36</ele>
        <time>2009-02-27T10:54:18Z</time>
      </trkpt>
      <trkpt lat="45.86526" lon="6.43933">
        <ele>2143.36</ele>
        <time>2009-02-27T10:55:13Z</time>
      </trkpt>
      <trkpt lat="45.86542" lon="6.43946">
        <ele>2146.794</ele>
        <time>2009-02-27T10:55:43Z</time>
      </trkpt>
      <trkpt lat="45.86558" lon="6.43958">
        <ele>2150.401</ele>
        <time>2009-02-27T10:56:22Z</time>
      </trkpt>
      <trkpt lat="45.86574" lon="6.4397">
        <ele>2155.273</ele>
        <time>2009-02-27T10:57:00Z</time>
      </trkpt>
      <trkpt lat="45.86558" lon="6.43981">
        <ele>2158.816</ele>
        <time>2009-02-27T10:57:59Z</time>
      </trkpt>
      <trkpt lat="45.86573" lon="6.43996">
        <ele>2162.737</ele>
        <time>2009-02-27T10:58:49Z</time>
      </trkpt>
      <trkpt lat="45.86589" lon="6.44002">
        <ele>2170.518</ele>
        <time>2009-02-27T10:59:24Z</time>
      </trkpt>
      <trkpt lat="45.86605" lon="6.44008">
        <ele>2178.888</ele>
        <time>2009-02-27T10:59:58Z</time>
      </trkpt>
      <trkpt lat="45.86623" lon="6.44006">
        <ele>2184.443</ele>
        <time>2009-02-27T11:00:32Z</time>
      </trkpt>
      <trkpt lat="45.86641" lon="6.44003">
        <ele>2188.57</ele>
        <time>2009-02-27T11:01:15Z</time>
      </trkpt>
      <trkpt lat="45.86658" lon="6.44005">
        <ele>2192.555</ele>
        <time>2009-02-27T11:01:43Z</time>
      </trkpt>
      <trkpt lat="45.86675" lon="6.44014">
        <ele>2194.913</ele>
        <time>2009-02-27T11:02:10Z</time>
      </trkpt>
      <trkpt lat="45.86684" lon="6.44038">
        <ele>2196.651</ele>
        <time>2009-02-27T11:02:43Z</time>
      </trkpt>
      <trkpt lat="45.867" lon="6.44049">
        <ele>2194.585</ele>
        <time>2009-02-27T11:05:09Z</time>
      </trkpt>
      <trkpt lat="45.86683" lon="6.4406">
        <ele>2196.971</ele>
        <time>2009-02-27T11:10:19Z</time>
      </trkpt>
      <trkpt lat="45.86672" lon="6.4408">
        <ele>2197.441</ele>
        <time>2009-02-27T11:10:42Z</time>
      </trkpt>
      <trkpt lat="45.86658" lon="6.44097">
        <ele>2199.401</ele>
        <time>2009-02-27T11:11:18Z</time>
      </trkpt>
      <trkpt lat="45.86642" lon="6.44109">
        <ele>2204.591</ele>
        <time>2009-02-27T11:11:47Z</time>
      </trkpt>
      <trkpt lat="45.86626" lon="6.44121">
        <ele>2206.872</ele>
        <time>2009-02-27T11:12:23Z</time>
      </trkpt>
      <trkpt lat="45.86615" lon="6.44141">
        <ele>2212.389</ele>
        <time>2009-02-27T11:13:38Z</time>
      </trkpt>
      <trkpt lat="45.86617" lon="6.44166">
        <ele>2215.486</ele>
        <time>2009-02-27T11:14:28Z</time>
      </trkpt>
      <trkpt lat="45.86605" lon="6.44173">
        <ele>2229.781</ele>
        <time>2009-02-27T11:17:00Z</time>
      </trkpt>
      <trkpt lat="45.8659" lon="6.4417">
        <ele>2240.743</ele>
        <time>2009-02-27T11:26:12Z</time>
      </trkpt>
      <trkpt lat="45.86578" lon="6.44182">
        <ele>2252.985</ele>
        <time>2009-02-27T11:28:03Z</time>
      </trkpt>
      <trkpt lat="45.86563" lon="6.44184">
        <ele>2264.275</ele>
        <time>2009-02-27T11:29:47Z</time>
      </trkpt>
      <trkpt lat="45.86546" lon="6.44185">
        <ele>2270.698</ele>
        <time>2009-02-27T11:32:11Z</time>
      </trkpt>
      <trkpt lat="45.86534" lon="6.44201">
        <ele>2280.073</ele>
        <time>2009-02-27T11:34:32Z</time>
      </trkpt>
      <trkpt lat="45.86535" lon="6.44223">
        <ele>2291.519</ele>
        <time>2009-02-27T11:36:59Z</time>
      </trkpt>
      <trkpt lat="45.86541" lon="6.44199">
        <ele>2284.199</ele>
        <time>2009-02-27T11:53:31Z</time>
      </trkpt>
      <trkpt lat="45.86543" lon="6.44178">
        <ele>2272.433</ele>
        <time>2009-02-27T11:53:52Z</time>
      </trkpt>
      <trkpt lat="45.8656" lon="6.44178">
        <ele>2263.575</ele>
        <time>2009-02-27T11:54:04Z</time>
      </trkpt>
      <trkpt lat="45.86576" lon="6.4419">
        <ele>2259.25</ele>
        <time>2009-02-27T11:54:22Z</time>
      </trkpt>
      <trkpt lat="45.86591" lon="6.44204">
        <ele>2253.324</ele>
        <time>2009-02-27T11:54:43Z</time>
      </trkpt>
      <trkpt lat="45.86605" lon="6.44218">
        <ele>2248.843</ele>
        <time>2009-02-27T11:54:59Z</time>
      </trkpt>
      <trkpt lat="45.86616" lon="6.44202">
        <ele>2237.966</ele>
        <time>2009-02-27T11:55:17Z</time>
      </trkpt>
      <trkpt lat="45.86626" lon="6.44186">
        <ele>2224.827</ele>
        <time>2009-02-27T11:55:28Z</time>
      </trkpt>
      <trkpt lat="45.86634" lon="6.44164">
        <ele>2215.835</ele>
        <time>2009-02-27T11:55:35Z</time>
      </trkpt>
      <trkpt lat="45.86635" lon="6.44137">
        <ele>2212.385</ele>
        <time>2009-02-27T11:55:39Z</time>
      </trkpt>
      <trkpt lat="45.86635" lon="6.4411">
        <ele>2210.657</ele>
        <time>2009-02-27T11:55:44Z</time>
      </trkpt>
      <trkpt lat="45.8664" lon="6.44085">
        <ele>2209.474</ele>
        <time>2009-02-27T11:55:55Z</time>
      </trkpt>
      <trkpt lat="45.86642" lon="6.44061">
        <ele>2203.135</ele>
        <time>2009-02-27T11:56:21Z</time>
      </trkpt>
      <trkpt lat="45.8666" lon="6.4406">
        <ele>2200.152</ele>
        <time>2009-02-27T11:56:30Z</time>
      </trkpt>
      <trkpt lat="45.86679" lon="6.44056">
        <ele>2198.397</ele>
        <time>2009-02-27T11:56:39Z</time>
      </trkpt>
      <trkpt lat="45.86672" lon="6.44031">
        <ele>2195.865</ele>
        <time>2009-02-27T11:56:54Z</time>
      </trkpt>
      <trkpt lat="45.86683" lon="6.44021">
        <ele>2182.468</ele>
        <time>2009-02-27T12:21:44Z</time>
      </trkpt>
      <trkpt lat="45.86671" lon="6.44012">
        <ele>2195.891</ele>
        <time>2009-02-27T12:57:05Z</time>
      </trkpt>
      <trkpt lat="45.86652" lon="6.44018">
        <ele>2193.534</ele>
        <time>2009-02-27T12:57:13Z</time>
      </trkpt>
      <trkpt lat="45.86632" lon="6.44021">
        <ele>2193.221</ele>
        <time>2009-02-27T12:57:18Z</time>
      </trkpt>
      <trkpt lat="45.8661" lon="6.44027">
        <ele>2189.764</ele>
        <time>2009-02-27T12:57:23Z</time>
      </trkpt>
      <trkpt lat="45.86589" lon="6.44025">
        <ele>2188.456</ele>
        <time>2009-02-27T12:57:28Z</time>
      </trkpt>
      <trkpt lat="45.86574" lon="6.44014">
        <ele>2183.938</ele>
        <time>2009-02-27T12:57:33Z</time>
      </trkpt>
      <trkpt lat="45.86576" lon="6.43988">
        <ele>2171.519</ele>
        <time>2009-02-27T12:57:40Z</time>
      </trkpt>
      <trkpt lat="45.86569" lon="6.43964">
        <ele>2163.199</ele>
        <time>2009-02-27T12:57:48Z</time>
      </trkpt>
      <trkpt lat="45.86552" lon="6.43956">
        <ele>2159.114</ele>
        <time>2009-02-27T12:57:53Z</time>
      </trkpt>
      <trkpt lat="45.86567" lon="6.43939">
        <ele>2149.761</ele>
        <time>2009-02-27T12:58:05Z</time>
      </trkpt>
      <trkpt lat="45.86573" lon="6.43917">
        <ele>2139.098</ele>
        <time>2009-02-27T12:58:15Z</time>
      </trkpt>
      <trkpt lat="45.86562" lon="6.43897">
        <ele>2132.322</ele>
        <time>2009-02-27T12:58:23Z</time>
      </trkpt>
      <trkpt lat="45.86557" lon="6.43873">
        <ele>2124.189</ele>
        <time>2009-02-27T12:59:06Z</time>
      </trkpt>
      <trkpt lat="45.86561" lon="6.43849">
        <ele>2115.553</ele>
        <time>2009-02-27T12:59:35Z</time>
      </trkpt>
      <trkpt lat="45.86566" lon="6.43822">
        <ele>2105.964</ele>
        <time>2009-02-27T12:59:42Z</time>
      </trkpt>
      <trkpt lat="45.86574" lon="6.43799">
        <ele>2096.469</ele>
        <time>2009-02-27T12:59:48Z</time>
      </trkpt>
      <trkpt lat="45.86579" lon="6.43772">
        <ele>2086.902</ele>
        <time>2009-02-27T12:59:55Z</time>
      </trkpt>
      <trkpt lat="45.86584" lon="6.43747">
        <ele>2075.952</ele>
        <time>2009-02-27T13:00:01Z</time>
      </trkpt>
      <trkpt lat="45.86591" lon="6.43729">
        <ele>2060.546</ele>
        <time>2009-02-27T13:00:54Z</time>
      </trkpt>
      <trkpt lat="45.86598" lon="6.43707">
        <ele>2051.188</ele>
        <time>2009-02-27T13:00:59Z</time>
      </trkpt>
      <trkpt lat="45.86602" lon="6.43682">
        <ele>2041.287</ele>
        <time>2009-02-27T13:01:04Z</time>
      </trkpt>
      <trkpt lat="45.86604" lon="6.43659">
        <ele>2030.614</ele>
        <time>2009-02-27T13:01:08Z</time>
      </trkpt>
      <trkpt lat="45.86589" lon="6.43636">
        <ele>2024.643</ele>
        <time>2009-02-27T13:01:12Z</time>
      </trkpt>
      <trkpt lat="45.86599" lon="6.43618">
        <ele>2013.583</ele>
        <time>2009-02-27T13:01:16Z</time>
      </trkpt>
      <trkpt lat="45.86611" lon="6.43594">
        <ele>2003.083</ele>
        <time>2009-02-27T13:01:22Z</time>
      </trkpt>
      <trkpt lat="45.86602" lon="6.43572">
        <ele>1995.31</ele>
        <time>2009-02-27T13:01:25Z</time>
      </trkpt>
      <trkpt lat="45.86584" lon="6.43558">
        <ele>1990.33</ele>
        <time>2009-02-27T13:01:31Z</time>
      </trkpt>
      <trkpt lat="45.8657" lon="6.43543">
        <ele>1987.175</ele>
        <time>2009-02-27T13:01:40Z</time>
      </trkpt>
      <trkpt lat="45.86579" lon="6.43521">
        <ele>1982.23</ele>
        <time>2009-02-27T13:03:30Z</time>
      </trkpt>
      <trkpt lat="45.86568" lon="6.43494">
        <ele>1976.119</ele>
        <time>2009-02-27T13:03:35Z</time>
      </trkpt>
      <trkpt lat="45.86556" lon="6.43475">
        <ele>1971.803</ele>
        <time>2009-02-27T13:03:40Z</time>
      </trkpt>
      <trkpt lat="45.86549" lon="6.4345">
        <ele>1964.724</ele>
        <time>2009-02-27T13:03:47Z</time>
      </trkpt>
      <trkpt lat="45.86557" lon="6.43424">
        <ele>1957.197</ele>
        <time>2009-02-27T13:03:56Z</time>
      </trkpt>
      <trkpt lat="45.86554" lon="6.43398">
        <ele>1952.674</ele>
        <time>2009-02-27T13:04:00Z</time>
      </trkpt>
      <trkpt lat="45.86546" lon="6.43377">
        <ele>1944.08</ele>
        <time>2009-02-27T13:04:21Z</time>
      </trkpt>
      <trkpt lat="45.86543" lon="6.4335">
        <ele>1939.666</ele>
        <time>2009-02-27T13:04:29Z</time>
      </trkpt>
      <trkpt lat="45.86532" lon="6.43327">
        <ele>1937.277</ele>
        <time>2009-02-27T13:04:38Z</time>
      </trkpt>
      <trkpt lat="45.86532" lon="6.43301">
        <ele>1931.671</ele>
        <time>2009-02-27T13:04:54Z</time>
      </trkpt>
      <trkpt lat="45.8653" lon="6.43274">
        <ele>1924.718</ele>
        <time>2009-02-27T13:05:04Z</time>
      </trkpt>
      <trkpt lat="45.86545" lon="6.43258">
        <ele>1914.363</ele>
        <time>2009-02-27T13:05:13Z</time>
      </trkpt>
      <trkpt lat="45.8656" lon="6.43272">
        <ele>1906.654</ele>
        <time>2009-02-27T13:05:17Z</time>
      </trkpt>
      <trkpt lat="45.86576" lon="6.43265">
        <ele>1895.284</ele>
        <time>2009-02-27T13:05:23Z</time>
      </trkpt>
      <trkpt lat="45.86591" lon="6.43255">
        <ele>1885.79</ele>
        <time>2009-02-27T13:06:00Z</time>
      </trkpt>
      <trkpt lat="45.86598" lon="6.43232">
        <ele>1877.707</ele>
        <time>2009-02-27T13:06:06Z</time>
      </trkpt>
      <trkpt lat="45.86607" lon="6.43211">
        <ele>1868.548</ele>
        <time>2009-02-27T13:06:12Z</time>
      </trkpt>
      <trkpt lat="45.86617" lon="6.43192">
        <ele>1856.53</ele>
        <time>2009-02-27T13:06:18Z</time>
      </trkpt>
      <trkpt lat="45.86617" lon="6.43172">
        <ele>1844.072</ele>
        <time>2009-02-27T13:06:42Z</time>
      </trkpt>
      <trkpt lat="45.86607" lon="6.43151">
        <ele>1838.786</ele>
        <time>2009-02-27T13:08:21Z</time>
      </trkpt>
      <trkpt lat="45.86602" lon="6.43126">
        <ele>1833.08</ele>
        <time>2009-02-27T13:08:25Z</time>
      </trkpt>
      <trkpt lat="45.86597" lon="6.431">
        <ele>1826.064</ele>
        <time>2009-02-27T13:08:31Z</time>
      </trkpt>
      <trkpt lat="45.86592" lon="6.43074">
        <ele>1821.036</ele>
        <time>2009-02-27T13:08:38Z</time>
      </trkpt>
      <trkpt lat="45.86601" lon="6.43058">
        <ele>1807.69</ele>
        <time>2009-02-27T13:08:45Z</time>
      </trkpt>
      <trkpt lat="45.86604" lon="6.43034">
        <ele>1797.667</ele>
        <time>2009-02-27T13:08:53Z</time>
      </trkpt>
      <trkpt lat="45.86622" lon="6.43027">
        <ele>1788.148</ele>
        <time>2009-02-27T13:09:01Z</time>
      </trkpt>
      <trkpt lat="45.86619" lon="6.43">
        <ele>1778.175</ele>
        <time>2009-02-27T13:09:07Z</time>
      </trkpt>
      <trkpt lat="45.86632" lon="6.42983">
        <ele>1769.364</ele>
        <time>2009-02-27T13:09:14Z</time>
      </trkpt>
      <trkpt lat="45.86628" lon="6.42958">
        <ele>1769.138</ele>
        <time>2009-02-27T13:09:40Z</time>
      </trkpt>
      <trkpt lat="45.86637" lon="6.42936">
        <ele>1762.523</ele>
        <time>2009-02-27T13:11:04Z</time>
      </trkpt>
      <trkpt lat="45.86651" lon="6.42922">
        <ele>1753.878</ele>
        <time>2009-02-27T13:11:11Z</time>
      </trkpt>
      <trkpt lat="45.8666" lon="6.42898">
        <ele>1744.262</ele>
        <time>2009-02-27T13:11:17Z</time>
      </trkpt>
      <trkpt lat="45.86671" lon="6.42879">
        <ele>1736.455</ele>
        <time>2009-02-27T13:11:23Z</time>
      </trkpt>
      <trkpt lat="45.86679" lon="6.42856">
        <ele>1728.071</ele>
        <time>2009-02-27T13:11:28Z</time>
      </trkpt>
      <trkpt lat="45.86672" lon="6.42832">
        <ele>1724.836</ele>
        <time>2009-02-27T13:12:11Z</time>
      </trkpt>
      <trkpt lat="45.86677" lon="6.42809">
        <ele>1716.004</ele>
        <time>2009-02-27T13:12:17Z</time>
      </trkpt>
      <trkpt lat="45.86687" lon="6.42786">
        <ele>1708.518</ele>
        <time>2009-02-27T13:12:23Z</time>
      </trkpt>
      <trkpt lat="45.86698" lon="6.42766">
        <ele>1700.785</ele>
        <time>2009-02-27T13:12:28Z</time>
      </trkpt>
      <trkpt lat="45.86699" lon="6.42738">
        <ele>1694.994</ele>
        <time>2009-02-27T13:12:33Z</time>
      </trkpt>
      <trkpt lat="45.86708" lon="6.42715">
        <ele>1687.486</ele>
        <time>2009-02-27T13:12:38Z</time>
      </trkpt>
      <trkpt lat="45.86712" lon="6.42686">
        <ele>1683.156</ele>
        <time>2009-02-27T13:13:53Z</time>
      </trkpt>
      <trkpt lat="45.86727" lon="6.42676">
        <ele>1675.158</ele>
        <time>2009-02-27T13:13:58Z</time>
      </trkpt>
      <trkpt lat="45.86721" lon="6.42651">
        <ele>1669.727</ele>
        <time>2009-02-27T13:14:02Z</time>
      </trkpt>
      <trkpt lat="45.86741" lon="6.42652">
        <ele>1659.792</ele>
        <time>2009-02-27T13:14:07Z</time>
      </trkpt>
      <trkpt lat="45.86739" lon="6.42627">
        <ele>1653.08</ele>
        <time>2009-02-27T13:14:11Z</time>
      </trkpt>
      <trkpt lat="45.86728" lon="6.42605">
        <ele>1651.154</ele>
        <time>2009-02-27T13:14:15Z</time>
      </trkpt>
      <trkpt lat="45.86717" lon="6.42581">
        <ele>1646.017</ele>
        <time>2009-02-27T13:14:20Z</time>
      </trkpt>
      <trkpt lat="45.86727" lon="6.42561">
        <ele>1636.133</ele>
        <time>2009-02-27T13:14:26Z</time>
      </trkpt>
      <trkpt lat="45.8674" lon="6.42541">
        <ele>1624.367</ele>
        <time>2009-02-27T13:14:32Z</time>
      </trkpt>
      <trkpt lat="45.86747" lon="6.42512">
        <ele>1618.57</ele>
        <time>2009-02-27T13:14:35Z</time>
      </trkpt>
      <trkpt lat="45.86744" lon="6.42483">
        <ele>1617.625</ele>
        <time>2009-02-27T13:14:38Z</time>
      </trkpt>
      <trkpt lat="45.86741" lon="6.42452">
        <ele>1614.206</ele>
        <time>2009-02-27T13:14:43Z</time>
      </trkpt>
      <trkpt lat="45.86753" lon="6.42431">
        <ele>1606.212</ele>
        <time>2009-02-27T13:14:47Z</time>
      </trkpt>
      <trkpt lat="45.86773" lon="6.42423">
        <ele>1601.4</ele>
        <time>2009-02-27T13:14:50Z</time>
      </trkpt>
      <trkpt lat="45.86791" lon="6.42403">
        <ele>1599.333</ele>
        <time>2009-02-27T13:14:53Z</time>
      </trkpt>
      <trkpt lat="45.86807" lon="6.42381">
        <ele>1597.01</ele>
        <time>2009-02-27T13:14:56Z</time>
      </trkpt>
      <trkpt lat="45.86819" lon="6.42358">
        <ele>1594.454</ele>
        <time>2009-02-27T13:14:59Z</time>
      </trkpt>
      <trkpt lat="45.8683" lon="6.42334">
        <ele>1594.574</ele>
        <time>2009-02-27T13:15:03Z</time>
      </trkpt>
      <trkpt lat="45.86833" lon="6.42303">
        <ele>1591.15</ele>
        <time>2009-02-27T13:15:08Z</time>
      </trkpt>
      <trkpt lat="45.86851" lon="6.42306">
        <ele>1588.248</ele>
        <time>2009-02-27T13:15:12Z</time>
      </trkpt>
      <trkpt lat="45.86869" lon="6.42293">
        <ele>1585.598</ele>
        <time>2009-02-27T13:15:16Z</time>
      </trkpt>
      <trkpt lat="45.86888" lon="6.42282">
        <ele>1579.543</ele>
        <time>2009-02-27T13:15:21Z</time>
      </trkpt>
      <trkpt lat="45.86905" lon="6.42264">
        <ele>1573.555</ele>
        <time>2009-02-27T13:15:25Z</time>
      </trkpt>
      <trkpt lat="45.86925" lon="6.4225">
        <ele>1567.224</ele>
        <time>2009-02-27T13:15:29Z</time>
      </trkpt>
      <trkpt lat="45.8694" lon="6.42231">
        <ele>1562.979</ele>
        <time>2009-02-27T13:15:33Z</time>
      </trkpt>
      <trkpt lat="45.8696" lon="6.42236">
        <ele>1560.572</ele>
        <time>2009-02-27T13:15:37Z</time>
      </trkpt>
      <trkpt lat="45.86981" lon="6.42253">
        <ele>1555.977</ele>
        <time>2009-02-27T13:15:41Z</time>
      </trkpt>
      <trkpt lat="45.87002" lon="6.42265">
        <ele>1554.103</ele>
        <time>2009-02-27T13:15:44Z</time>
      </trkpt>
      <trkpt lat="45.87022" lon="6.42273">
        <ele>1553.242</ele>
        <time>2009-02-27T13:15:47Z</time>
      </trkpt>
      <trkpt lat="45.87042" lon="6.42269">
        <ele>1553.319</ele>
        <time>2009-02-27T13:15:51Z</time>
      </trkpt>
      <trkpt lat="45.87061" lon="6.42268">
        <ele>1551.71</ele>
        <time>2009-02-27T13:15:56Z</time>
      </trkpt>
      <trkpt lat="45.8708" lon="6.42268">
        <ele>1549.373</ele>
        <time>2009-02-27T13:16:01Z</time>
      </trkpt>
      <trkpt lat="45.87101" lon="6.42268">
        <ele>1545.461</ele>
        <time>2009-02-27T13:16:05Z</time>
      </trkpt>
      <trkpt lat="45.87119" lon="6.42268">
        <ele>1543.041</ele>
        <time>2009-02-27T13:16:08Z</time>
      </trkpt>
      <trkpt lat="45.87137" lon="6.42271">
        <ele>1541.135</ele>
        <time>2009-02-27T13:16:11Z</time>
      </trkpt>
      <trkpt lat="45.87158" lon="6.42269">
        <ele>1539.292</ele>
        <time>2009-02-27T13:16:14Z</time>
      </trkpt>
      <trkpt lat="45.8718" lon="6.42266">
        <ele>1538.046</ele>
        <time>2009-02-27T13:16:17Z</time>
      </trkpt>
      <trkpt lat="45.87202" lon="6.42263">
        <ele>1537.823</ele>
        <time>2009-02-27T13:16:20Z</time>
      </trkpt>
      <trkpt lat="45.87222" lon="6.4226">
        <ele>1536.662</ele>
        <time>2009-02-27T13:16:23Z</time>
      </trkpt>
      <trkpt lat="45.87242" lon="6.42259">
        <ele>1534.721</ele>
        <time>2009-02-27T13:16:26Z</time>
      </trkpt>
      <trkpt lat="45.87264" lon="6.42256">
        <ele>1531.5</ele>
        <time>2009-02-27T13:16:29Z</time>
      </trkpt>
      <trkpt lat="45.87286" lon="6.42256">
        <ele>1528.453</ele>
        <time>2009-02-27T13:16:32Z</time>
      </trkpt>
      <trkpt lat="45.87301" lon="6.42274">
        <ele>1527.292</ele>
        <time>2009-02-27T13:16:37Z</time>
      </trkpt>
      <trkpt lat="45.87318" lon="6.42259">
        <ele>1525.477</ele>
        <time>2009-02-27T13:16:41Z</time>
      </trkpt>
      <trkpt lat="45.87335" lon="6.4225">
        <ele>1522.477</ele>
        <time>2009-02-27T13:16:44Z</time>
      </trkpt>
      <trkpt lat="45.87352" lon="6.42241">
        <ele>1520.795</ele>
        <time>2009-02-27T13:16:47Z</time>
      </trkpt>
      <trkpt lat="45.87372" lon="6.42224">
        <ele>1517.64</ele>
        <time>2009-02-27T13:16:51Z</time>
      </trkpt>
      <trkpt lat="45.87388" lon="6.42207">
        <ele>1514.753</ele>
        <time>2009-02-27T13:16:54Z</time>
      </trkpt>
      <trkpt lat="45.87403" lon="6.42193">
        <ele>1511.705</ele>
        <time>2009-02-27T13:16:57Z</time>
      </trkpt>
      <trkpt lat="45.87421" lon="6.42184">
        <ele>1508.697</ele>
        <time>2009-02-27T13:17:00Z</time>
      </trkpt>
      <trkpt lat="45.87443" lon="6.42192">
        <ele>1505.183</ele>
        <time>2009-02-27T13:17:04Z</time>
      </trkpt>
      <trkpt lat="45.87462" lon="6.42181">
        <ele>1500.564</ele>
        <time>2009-02-27T13:17:08Z</time>
      </trkpt>
      <trkpt lat="45.87452" lon="6.42156">
        <ele>1500.112</ele>
        <time>2009-02-27T13:17:12Z</time>
      </trkpt>
      <trkpt lat="45.87443" lon="6.42132">
        <ele>1494.532</ele>
        <time>2009-02-27T13:17:17Z</time>
      </trkpt>
      <trkpt lat="45.87461" lon="6.42129">
        <ele>1489.687</ele>
        <time>2009-02-27T13:17:20Z</time>
      </trkpt>
      <trkpt lat="45.87478" lon="6.42139">
        <ele>1486.747</ele>
        <time>2009-02-27T13:17:23Z</time>
      </trkpt>
      <trkpt lat="45.87484" lon="6.42113">
        <ele>1479.834</ele>
        <time>2009-02-27T13:17:28Z</time>
      </trkpt>
      <trkpt lat="45.87505" lon="6.42108">
        <ele>1473.527</ele>
        <time>2009-02-27T13:17:32Z</time>
      </trkpt>
      <trkpt lat="45.87521" lon="6.4212">
        <ele>1470.281</ele>
        <time>2009-02-27T13:17:35Z</time>
      </trkpt>
      <trkpt lat="45.87525" lon="6.42092">
        <ele>1463.474</ele>
        <time>2009-02-27T13:17:42Z</time>
      </trkpt>
      <trkpt lat="45.87514" lon="6.4207">
        <ele>1462.479</ele>
        <time>2009-02-27T13:17:47Z</time>
      </trkpt>
      <trkpt lat="45.87535" lon="6.42077">
        <ele>1457.69</ele>
        <time>2009-02-27T13:17:52Z</time>
      </trkpt>
      <trkpt lat="45.87553" lon="6.42087">
        <ele>1454.666</ele>
        <time>2009-02-27T13:17:56Z</time>
      </trkpt>
      <trkpt lat="45.87571" lon="6.42096">
        <ele>1450.86</ele>
        <time>2009-02-27T13:17:59Z</time>
      </trkpt>
      <trkpt lat="45.8759" lon="6.42102">
        <ele>1449.275</ele>
        <time>2009-02-27T13:18:02Z</time>
      </trkpt>
      <trkpt lat="45.87581" lon="6.42073">
        <ele>1447.328</ele>
        <time>2009-02-27T13:18:13Z</time>
      </trkpt>
      <trkpt lat="45.87571" lon="6.4205">
        <ele>1444.287</ele>
        <time>2009-02-27T13:18:16Z</time>
      </trkpt>
      <trkpt lat="45.87561" lon="6.42028">
        <ele>1440.907</ele>
        <time>2009-02-27T13:18:19Z</time>
      </trkpt>
      <trkpt lat="45.87551" lon="6.41999">
        <ele>1437.468</ele>
        <time>2009-02-27T13:18:24Z</time>
      </trkpt>
      <trkpt lat="45.87546" lon="6.41975">
        <ele>1431.934</ele>
        <time>2009-02-27T13:18:29Z</time>
      </trkpt>
      <trkpt lat="45.87541" lon="6.41949">
        <ele>1426.501</ele>
        <time>2009-02-27T13:18:39Z</time>
      </trkpt>
    </trkseg>
  </trk>
</gpx>